sensor_id;sensor_type;location;lat;lon;timestamp;P1;durP1;ratioP1;P2;durP2;ratioP2
21878;SDS011;27908;42.708;23.278;2023-02-12T00:00:10;14.30;;;5.23;;
21878;SDS011;27908;42.708;23.278;2023-02-12T00:02:36;14.85;;;5.85;;
21878;SDS011;27908;42.708;23.278;2023-02-12T00:05:02;12.17;;;6.43;;
21878;SDS011;27908;42.708;23.278;2023-02-12T00:07:28;11.48;;;5.50;;
21878;SDS011;27908;42.708;23.278;2023-02-12T00:09:55;12.45;;;5.47;;
21878;SDS011;27908;42.708;23.278;2023-02-12T00:12:20;10.53;;;4.73;;
21878;SDS011;27908;42.708;23.278;2023-02-12T00:14:46;12.30;;;6.03;;
21878;SDS011;27908;42.708;23.278;2023-02-12T00:17:11;13.37;;;7.00;;
21878;SDS011;27908;42.708;23.278;2023-02-12T00:19:36;15.57;;;6.75;;
21878;SDS011;27908;42.708;23.278;2023-02-12T00:22:02;12.80;;;5.57;;
21878;SDS011;27908;42.708;23.278;2023-02-12T00:24:27;15.37;;;6.40;;
21878;SDS011;27908;42.708;23.278;2023-02-12T00:26:53;13.00;;;5.87;;
21878;SDS011;27908;42.708;23.278;2023-02-12T00:29:18;17.57;;;6.07;;
21878;SDS011;27908;42.708;23.278;2023-02-12T00:31:43;14.38;;;6.22;;
21878;SDS011;27908;42.708;23.278;2023-02-12T00:34:09;14.97;;;5.73;;
21878;SDS011;27908;42.708;23.278;2023-02-12T00:36:35;11.88;;;5.45;;
21878;SDS011;27908;42.708;23.278;2023-02-12T00:39:00;10.60;;;4.47;;
21878;SDS011;27908;42.708;23.278;2023-02-12T00:41:26;14.23;;;5.83;;
21878;SDS011;27908;42.708;23.278;2023-02-12T00:43:52;13.48;;;5.57;;
21878;SDS011;27908;42.708;23.278;2023-02-12T00:46:17;13.83;;;6.57;;
21878;SDS011;27908;42.708;23.278;2023-02-12T00:48:43;12.10;;;4.97;;
21878;SDS011;27908;42.708;23.278;2023-02-12T00:51:09;15.07;;;6.32;;
21878;SDS011;27908;42.708;23.278;2023-02-12T00:53:34;12.97;;;5.73;;
21878;SDS011;27908;42.708;23.278;2023-02-12T00:56:00;15.13;;;6.50;;
21878;SDS011;27908;42.708;23.278;2023-02-12T00:58:25;16.40;;;7.10;;
21878;SDS011;27908;42.708;23.278;2023-02-12T01:00:52;13.55;;;6.05;;
21878;SDS011;27908;42.708;23.278;2023-02-12T01:03:18;14.90;;;5.87;;
21878;SDS011;27908;42.708;23.278;2023-02-12T01:05:44;14.88;;;6.38;;
21878;SDS011;27908;42.708;23.278;2023-02-12T01:08:10;16.70;;;7.00;;
21878;SDS011;27908;42.708;23.278;2023-02-12T01:10:37;14.55;;;6.85;;
21878;SDS011;27908;42.708;23.278;2023-02-12T01:13:03;15.70;;;6.93;;
21878;SDS011;27908;42.708;23.278;2023-02-12T01:15:28;14.35;;;6.20;;
21878;SDS011;27908;42.708;23.278;2023-02-12T01:17:53;14.80;;;7.10;;
21878;SDS011;27908;42.708;23.278;2023-02-12T01:20:20;17.43;;;7.17;;
21878;SDS011;27908;42.708;23.278;2023-02-12T01:22:47;17.40;;;6.95;;
21878;SDS011;27908;42.708;23.278;2023-02-12T01:25:13;15.60;;;7.13;;
21878;SDS011;27908;42.708;23.278;2023-02-12T01:27:39;17.92;;;7.90;;
21878;SDS011;27908;42.708;23.278;2023-02-12T01:30:07;14.93;;;6.25;;
21878;SDS011;27908;42.708;23.278;2023-02-12T01:32:34;16.65;;;7.88;;
21878;SDS011;27908;42.708;23.278;2023-02-12T01:34:59;16.27;;;6.40;;
21878;SDS011;27908;42.708;23.278;2023-02-12T01:37:25;17.40;;;7.00;;
21878;SDS011;27908;42.708;23.278;2023-02-12T01:39:50;17.33;;;7.67;;
21878;SDS011;27908;42.708;23.278;2023-02-12T01:42:16;16.08;;;7.13;;
21878;SDS011;27908;42.708;23.278;2023-02-12T01:44:44;19.85;;;7.30;;
21878;SDS011;27908;42.708;23.278;2023-02-12T01:47:30;16.50;;;7.90;;
21878;SDS011;27908;42.708;23.278;2023-02-12T01:49:55;17.33;;;7.18;;
21878;SDS011;27908;42.708;23.278;2023-02-12T01:52:26;15.60;;;7.17;;
21878;SDS011;27908;42.708;23.278;2023-02-12T01:54:54;15.25;;;6.65;;
21878;SDS011;27908;42.708;23.278;2023-02-12T01:57:24;16.65;;;7.72;;
21878;SDS011;27908;42.708;23.278;2023-02-12T01:59:53;19.00;;;7.23;;
21878;SDS011;27908;42.708;23.278;2023-02-12T02:02:21;14.98;;;6.57;;
21878;SDS011;27908;42.708;23.278;2023-02-12T02:04:47;18.67;;;8.20;;
21878;SDS011;27908;42.708;23.278;2023-02-12T02:07:17;16.20;;;6.88;;
21878;SDS011;27908;42.708;23.278;2023-02-12T02:09:43;17.77;;;7.30;;
21878;SDS011;27908;42.708;23.278;2023-02-12T02:12:08;16.85;;;7.68;;
21878;SDS011;27908;42.708;23.278;2023-02-12T02:14:54;16.92;;;7.15;;
21878;SDS011;27908;42.708;23.278;2023-02-12T02:39:08;21.98;;;8.95;;
21878;SDS011;27908;42.708;23.278;2023-02-12T02:44:25;19.83;;;8.83;;
21878;SDS011;27908;42.708;23.278;2023-02-12T02:46:58;21.00;;;8.95;;
21878;SDS011;27908;42.708;23.278;2023-02-12T02:49:36;19.00;;;8.75;;
21878;SDS011;27908;42.708;23.278;2023-02-12T02:52:10;20.83;;;9.32;;
21878;SDS011;27908;42.708;23.278;2023-02-12T02:54:42;20.75;;;9.40;;
21878;SDS011;27908;42.708;23.278;2023-02-12T02:57:19;16.87;;;7.80;;
21878;SDS011;27908;42.708;23.278;2023-02-12T02:59:51;22.65;;;9.27;;
21878;SDS011;27908;42.708;23.278;2023-02-12T03:02:24;20.60;;;9.15;;
21878;SDS011;27908;42.708;23.278;2023-02-12T03:04:57;21.17;;;9.13;;
21878;SDS011;27908;42.708;23.278;2023-02-12T03:07:47;17.60;;;7.97;;
21878;SDS011;27908;42.708;23.278;2023-02-12T03:10:20;20.60;;;7.83;;
21878;SDS011;27908;42.708;23.278;2023-02-12T03:12:54;16.20;;;7.63;;
21878;SDS011;27908;42.708;23.278;2023-02-12T03:15:31;21.27;;;9.55;;
21878;SDS011;27908;42.708;23.278;2023-02-12T03:18:02;22.67;;;9.85;;
21878;SDS011;27908;42.708;23.278;2023-02-12T03:20:36;27.67;;;11.07;;
21878;SDS011;27908;42.708;23.278;2023-02-12T03:23:10;21.27;;;10.13;;
21878;SDS011;27908;42.708;23.278;2023-02-12T03:28:29;18.30;;;8.60;;
21878;SDS011;27908;42.708;23.278;2023-02-12T03:33:31;20.65;;;9.73;;
21878;SDS011;27908;42.708;23.278;2023-02-12T03:36:08;24.87;;;10.57;;
21878;SDS011;27908;42.708;23.278;2023-02-12T03:38:52;21.45;;;9.73;;
21878;SDS011;27908;42.708;23.278;2023-02-12T03:43:52;21.83;;;9.70;;
21878;SDS011;27908;42.708;23.278;2023-02-12T03:49:22;22.65;;;10.27;;
21878;SDS011;27908;42.708;23.278;2023-02-12T03:52:03;21.15;;;10.20;;
21878;SDS011;27908;42.708;23.278;2023-02-12T03:54:29;23.08;;;10.80;;
21878;SDS011;27908;42.708;23.278;2023-02-12T03:59:41;24.45;;;11.90;;
21878;SDS011;27908;42.708;23.278;2023-02-12T04:02:08;27.25;;;11.25;;
21878;SDS011;27908;42.708;23.278;2023-02-12T04:04:34;27.15;;;13.50;;
21878;SDS011;27908;42.708;23.278;2023-02-12T04:07:00;29.30;;;14.60;;
21878;SDS011;27908;42.708;23.278;2023-02-12T04:09:26;32.88;;;15.40;;
21878;SDS011;27908;42.708;23.278;2023-02-12T04:14:48;41.63;;;21.90;;
21878;SDS011;27908;42.708;23.278;2023-02-12T04:33:48;21.70;;;9.88;;
21878;SDS011;27908;42.708;23.278;2023-02-12T04:36:24;23.92;;;10.25;;
21878;SDS011;27908;42.708;23.278;2023-02-12T04:38:54;21.05;;;9.63;;
21878;SDS011;27908;42.708;23.278;2023-02-12T04:41:24;26.08;;;11.63;;
21878;SDS011;27908;42.708;23.278;2023-02-12T04:43:50;24.42;;;9.68;;
21878;SDS011;27908;42.708;23.278;2023-02-12T04:46:15;22.05;;;10.30;;
21878;SDS011;27908;42.708;23.278;2023-02-12T04:48:54;19.50;;;9.13;;
21878;SDS011;27908;42.708;23.278;2023-02-12T04:51:22;22.05;;;10.27;;
21878;SDS011;27908;42.708;23.278;2023-02-12T04:53:47;23.03;;;9.67;;
21878;SDS011;27908;42.708;23.278;2023-02-12T04:56:13;19.40;;;9.33;;
21878;SDS011;27908;42.708;23.278;2023-02-12T04:58:39;17.00;;;8.32;;
21878;SDS011;27908;42.708;23.278;2023-02-12T05:01:05;24.42;;;9.98;;
21878;SDS011;27908;42.708;23.278;2023-02-12T05:03:31;19.90;;;8.38;;
21878;SDS011;27908;42.708;23.278;2023-02-12T05:06:01;19.27;;;9.47;;
21878;SDS011;27908;42.708;23.278;2023-02-12T05:08:30;17.27;;;7.32;;
21878;SDS011;27908;42.708;23.278;2023-02-12T05:10:56;21.42;;;9.15;;
21878;SDS011;27908;42.708;23.278;2023-02-12T05:13:26;16.60;;;7.13;;
21878;SDS011;27908;42.708;23.278;2023-02-12T05:15:52;16.77;;;6.65;;
21878;SDS011;27908;42.708;23.278;2023-02-12T05:18:17;16.90;;;8.15;;
21878;SDS011;27908;42.708;23.278;2023-02-12T05:20:42;14.30;;;7.00;;
21878;SDS011;27908;42.708;23.278;2023-02-12T05:23:08;18.50;;;8.43;;
21878;SDS011;27908;42.708;23.278;2023-02-12T05:25:33;16.07;;;6.73;;
21878;SDS011;27908;42.708;23.278;2023-02-12T05:27:59;17.95;;;7.70;;
21878;SDS011;27908;42.708;23.278;2023-02-12T05:30:24;16.75;;;7.18;;
21878;SDS011;27908;42.708;23.278;2023-02-12T05:32:49;17.57;;;7.07;;
21878;SDS011;27908;42.708;23.278;2023-02-12T05:35:15;18.20;;;8.13;;
21878;SDS011;27908;42.708;23.278;2023-02-12T05:37:40;15.93;;;8.10;;
21878;SDS011;27908;42.708;23.278;2023-02-12T05:40:06;20.70;;;9.17;;
21878;SDS011;27908;42.708;23.278;2023-02-12T05:42:32;16.70;;;7.88;;
21878;SDS011;27908;42.708;23.278;2023-02-12T05:44:58;14.55;;;6.25;;
21878;SDS011;27908;42.708;23.278;2023-02-12T05:47:23;22.80;;;10.23;;
21878;SDS011;27908;42.708;23.278;2023-02-12T05:49:49;18.30;;;8.97;;
21878;SDS011;27908;42.708;23.278;2023-02-12T05:52:14;16.10;;;6.97;;
21878;SDS011;27908;42.708;23.278;2023-02-12T05:54:39;13.60;;;6.97;;
21878;SDS011;27908;42.708;23.278;2023-02-12T05:57:05;22.85;;;10.90;;
21878;SDS011;27908;42.708;23.278;2023-02-12T05:59:31;24.60;;;10.10;;
21878;SDS011;27908;42.708;23.278;2023-02-12T06:01:57;14.18;;;6.53;;
21878;SDS011;27908;42.708;23.278;2023-02-12T06:04:24;19.60;;;8.97;;
21878;SDS011;27908;42.708;23.278;2023-02-12T06:06:51;16.42;;;8.18;;
21878;SDS011;27908;42.708;23.278;2023-02-12T06:09:17;19.98;;;8.75;;
21878;SDS011;27908;42.708;23.278;2023-02-12T06:11:43;17.90;;;7.67;;
21878;SDS011;27908;42.708;23.278;2023-02-12T06:14:10;21.08;;;8.48;;
21878;SDS011;27908;42.708;23.278;2023-02-12T06:16:37;13.80;;;6.18;;
21878;SDS011;27908;42.708;23.278;2023-02-12T06:19:04;18.33;;;8.53;;
21878;SDS011;27908;42.708;23.278;2023-02-12T06:21:30;14.82;;;6.57;;
21878;SDS011;27908;42.708;23.278;2023-02-12T06:23:56;17.65;;;8.27;;
21878;SDS011;27908;42.708;23.278;2023-02-12T06:26:22;16.77;;;7.87;;
21878;SDS011;27908;42.708;23.278;2023-02-12T06:28:48;22.23;;;9.10;;
21878;SDS011;27908;42.708;23.278;2023-02-12T06:31:35;21.43;;;8.93;;
21878;SDS011;27908;42.708;23.278;2023-02-12T06:34:00;18.23;;;7.75;;
21878;SDS011;27908;42.708;23.278;2023-02-12T06:36:28;19.13;;;8.98;;
21878;SDS011;27908;42.708;23.278;2023-02-12T06:38:54;17.77;;;8.65;;
21878;SDS011;27908;42.708;23.278;2023-02-12T06:41:20;24.17;;;7.87;;
21878;SDS011;27908;42.708;23.278;2023-02-12T06:43:46;21.88;;;7.78;;
21878;SDS011;27908;42.708;23.278;2023-02-12T06:46:12;16.53;;;8.10;;
21878;SDS011;27908;42.708;23.278;2023-02-12T06:48:38;13.75;;;6.90;;
21878;SDS011;27908;42.708;23.278;2023-02-12T06:51:07;16.83;;;7.57;;
21878;SDS011;27908;42.708;23.278;2023-02-12T06:53:37;21.40;;;8.88;;
21878;SDS011;27908;42.708;23.278;2023-02-12T06:56:03;18.73;;;8.27;;
21878;SDS011;27908;42.708;23.278;2023-02-12T06:58:30;19.02;;;7.88;;
21878;SDS011;27908;42.708;23.278;2023-02-12T07:00:56;18.73;;;9.02;;
21878;SDS011;27908;42.708;23.278;2023-02-12T07:03:21;17.70;;;7.77;;
21878;SDS011;27908;42.708;23.278;2023-02-12T07:05:47;17.90;;;8.57;;
21878;SDS011;27908;42.708;23.278;2023-02-12T07:08:12;17.98;;;7.80;;
21878;SDS011;27908;42.708;23.278;2023-02-12T07:10:39;16.73;;;8.15;;
21878;SDS011;27908;42.708;23.278;2023-02-12T07:13:04;23.48;;;9.02;;
21878;SDS011;27908;42.708;23.278;2023-02-12T07:15:30;15.73;;;7.90;;
21878;SDS011;27908;42.708;23.278;2023-02-12T07:17:55;23.87;;;9.37;;
21878;SDS011;27908;42.708;23.278;2023-02-12T07:20:20;17.97;;;8.20;;
21878;SDS011;27908;42.708;23.278;2023-02-12T07:22:46;20.90;;;9.35;;
21878;SDS011;27908;42.708;23.278;2023-02-12T07:25:11;20.87;;;9.13;;
21878;SDS011;27908;42.708;23.278;2023-02-12T07:27:37;19.03;;;9.47;;
21878;SDS011;27908;42.708;23.278;2023-02-12T07:30:04;21.98;;;10.25;;
21878;SDS011;27908;42.708;23.278;2023-02-12T07:32:33;19.15;;;8.80;;
21878;SDS011;27908;42.708;23.278;2023-02-12T07:34:59;13.13;;;6.38;;
21878;SDS011;27908;42.708;23.278;2023-02-12T07:37:24;19.23;;;8.77;;
21878;SDS011;27908;42.708;23.278;2023-02-12T07:39:50;22.83;;;9.50;;
21878;SDS011;27908;42.708;23.278;2023-02-12T07:42:16;19.40;;;10.00;;
21878;SDS011;27908;42.708;23.278;2023-02-12T07:44:42;19.97;;;9.77;;
21878;SDS011;27908;42.708;23.278;2023-02-12T07:47:08;22.13;;;9.02;;
21878;SDS011;27908;42.708;23.278;2023-02-12T07:49:34;17.73;;;8.85;;
21878;SDS011;27908;42.708;23.278;2023-02-12T07:51:59;28.60;;;9.88;;
21878;SDS011;27908;42.708;23.278;2023-02-12T07:54:25;24.00;;;10.47;;
21878;SDS011;27908;42.708;23.278;2023-02-12T07:56:50;21.60;;;8.98;;
21878;SDS011;27908;42.708;23.278;2023-02-12T07:59:16;25.25;;;11.25;;
21878;SDS011;27908;42.708;23.278;2023-02-12T08:01:49;23.98;;;10.52;;
21878;SDS011;27908;42.708;23.278;2023-02-12T08:04:17;22.08;;;10.23;;
21878;SDS011;27908;42.708;23.278;2023-02-12T08:06:45;27.10;;;11.88;;
21878;SDS011;27908;42.708;23.278;2023-02-12T08:09:14;24.70;;;10.10;;
21878;SDS011;27908;42.708;23.278;2023-02-12T08:11:41;26.13;;;9.60;;
21878;SDS011;27908;42.708;23.278;2023-02-12T08:14:09;22.95;;;10.57;;
21878;SDS011;27908;42.708;23.278;2023-02-12T08:16:36;20.48;;;10.45;;
21878;SDS011;27908;42.708;23.278;2023-02-12T08:19:03;21.95;;;10.50;;
21878;SDS011;27908;42.708;23.278;2023-02-12T08:21:29;24.10;;;10.00;;
21878;SDS011;27908;42.708;23.278;2023-02-12T08:23:56;23.60;;;10.60;;
21878;SDS011;27908;42.708;23.278;2023-02-12T08:26:23;28.73;;;12.40;;
21878;SDS011;27908;42.708;23.278;2023-02-12T08:29:00;21.50;;;9.85;;
21878;SDS011;27908;42.708;23.278;2023-02-12T08:31:31;21.90;;;10.00;;
21878;SDS011;27908;42.708;23.278;2023-02-12T08:33:59;22.23;;;11.13;;
21878;SDS011;27908;42.708;23.278;2023-02-12T08:36:26;45.65;;;20.08;;
21878;SDS011;27908;42.708;23.278;2023-02-12T08:38:53;18.42;;;9.07;;
21878;SDS011;27908;42.708;23.278;2023-02-12T08:41:22;30.95;;;12.18;;
21878;SDS011;27908;42.708;23.278;2023-02-12T08:43:54;33.03;;;12.70;;
21878;SDS011;27908;42.708;23.278;2023-02-12T08:46:23;18.83;;;9.27;;
21878;SDS011;27908;42.708;23.278;2023-02-12T08:49:00;27.27;;;11.80;;
21878;SDS011;27908;42.708;23.278;2023-02-12T08:51:29;25.52;;;13.98;;
21878;SDS011;27908;42.708;23.278;2023-02-12T08:53:57;21.20;;;10.73;;
21878;SDS011;27908;42.708;23.278;2023-02-12T08:56:25;19.08;;;9.60;;
21878;SDS011;27908;42.708;23.278;2023-02-12T08:58:52;23.02;;;11.05;;
21878;SDS011;27908;42.708;23.278;2023-02-12T09:01:19;25.50;;;11.95;;
21878;SDS011;27908;42.708;23.278;2023-02-12T09:03:46;22.93;;;11.60;;
21878;SDS011;27908;42.708;23.278;2023-02-12T09:06:13;16.50;;;8.32;;
21878;SDS011;27908;42.708;23.278;2023-02-12T09:08:39;19.95;;;10.52;;
21878;SDS011;27908;42.708;23.278;2023-02-12T09:11:06;27.30;;;11.75;;
21878;SDS011;27908;42.708;23.278;2023-02-12T09:13:33;28.57;;;11.13;;
21878;SDS011;27908;42.708;23.278;2023-02-12T09:16:01;29.73;;;12.25;;
21878;SDS011;27908;42.708;23.278;2023-02-12T09:18:27;20.27;;;9.70;;
21878;SDS011;27908;42.708;23.278;2023-02-12T09:20:53;27.15;;;12.23;;
21878;SDS011;27908;42.708;23.278;2023-02-12T09:23:19;24.47;;;12.13;;
21878;SDS011;27908;42.708;23.278;2023-02-12T09:25:47;26.63;;;13.32;;
21878;SDS011;27908;42.708;23.278;2023-02-12T09:28:13;23.03;;;11.23;;
21878;SDS011;27908;42.708;23.278;2023-02-12T09:30:39;25.33;;;12.70;;
21878;SDS011;27908;42.708;23.278;2023-02-12T09:33:05;26.38;;;13.57;;
21878;SDS011;27908;42.708;23.278;2023-02-12T09:35:35;31.23;;;13.68;;
21878;SDS011;27908;42.708;23.278;2023-02-12T09:38:02;28.15;;;13.00;;
21878;SDS011;27908;42.708;23.278;2023-02-12T09:40:49;24.52;;;12.65;;
21878;SDS011;27908;42.708;23.278;2023-02-12T09:51:28;28.77;;;12.88;;
21878;SDS011;27908;42.708;23.278;2023-02-12T09:54:05;26.33;;;13.13;;
21878;SDS011;27908;42.708;23.278;2023-02-12T09:56:39;28.95;;;11.80;;
21878;SDS011;27908;42.708;23.278;2023-02-12T09:59:08;26.98;;;13.65;;
21878;SDS011;27908;42.708;23.278;2023-02-12T10:01:38;21.60;;;11.77;;
21878;SDS011;27908;42.708;23.278;2023-02-12T10:04:04;27.85;;;13.63;;
21878;SDS011;27908;42.708;23.278;2023-02-12T10:06:32;28.47;;;13.30;;
21878;SDS011;27908;42.708;23.278;2023-02-12T10:11:42;28.25;;;12.75;;
21878;SDS011;27908;42.708;23.278;2023-02-12T10:25:31;30.38;;;14.90;;
21878;SDS011;27908;42.708;23.278;2023-02-12T10:27:59;30.70;;;14.15;;
21878;SDS011;27908;42.708;23.278;2023-02-12T10:33:16;28.23;;;12.48;;
21878;SDS011;27908;42.708;23.278;2023-02-12T10:35:48;29.17;;;12.98;;
21878;SDS011;27908;42.708;23.278;2023-02-12T10:38:29;31.90;;;14.82;;
21878;SDS011;27908;42.708;23.278;2023-02-12T10:40:59;30.40;;;15.10;;
21878;SDS011;27908;42.708;23.278;2023-02-12T10:43:26;28.35;;;13.82;;
21878;SDS011;27908;42.708;23.278;2023-02-12T10:45:51;28.17;;;13.97;;
21878;SDS011;27908;42.708;23.278;2023-02-12T10:48:21;30.55;;;12.48;;
21878;SDS011;27908;42.708;23.278;2023-02-12T10:53:37;33.67;;;14.70;;
21878;SDS011;27908;42.708;23.278;2023-02-12T10:58:49;22.13;;;11.82;;
21878;SDS011;27908;42.708;23.278;2023-02-12T11:03:58;29.45;;;12.38;;
21878;SDS011;27908;42.708;23.278;2023-02-12T11:06:31;26.20;;;12.98;;
21878;SDS011;27908;42.708;23.278;2023-02-12T11:08:57;27.80;;;13.52;;
21878;SDS011;27908;42.708;23.278;2023-02-12T11:16:31;23.23;;;11.18;;
21878;SDS011;27908;42.708;23.278;2023-02-12T11:19:23;32.95;;;14.68;;
21878;SDS011;27908;42.708;23.278;2023-02-12T11:22:02;32.58;;;14.40;;
21878;SDS011;27908;42.708;23.278;2023-02-12T11:24:32;31.05;;;14.27;;
21878;SDS011;27908;42.708;23.278;2023-02-12T11:27:12;28.80;;;14.90;;
21878;SDS011;27908;42.708;23.278;2023-02-12T11:29:46;25.48;;;13.27;;
21878;SDS011;27908;42.708;23.278;2023-02-12T11:32:34;36.30;;;18.17;;
21878;SDS011;27908;42.708;23.278;2023-02-12T11:35:11;22.98;;;11.55;;
21878;SDS011;27908;42.708;23.278;2023-02-12T11:37:40;30.00;;;11.97;;
21878;SDS011;27908;42.708;23.278;2023-02-12T11:42:57;28.33;;;13.52;;
21878;SDS011;27908;42.708;23.278;2023-02-12T11:45:31;34.08;;;14.40;;
21878;SDS011;27908;42.708;23.278;2023-02-12T11:50:51;25.17;;;13.23;;
21878;SDS011;27908;42.708;23.278;2023-02-12T11:53:20;27.42;;;14.10;;
21878;SDS011;27908;42.708;23.278;2023-02-12T11:55:56;25.65;;;13.82;;
21878;SDS011;27908;42.708;23.278;2023-02-12T11:58:27;32.25;;;14.30;;
21878;SDS011;27908;42.708;23.278;2023-02-12T12:00:55;29.15;;;16.48;;
21878;SDS011;27908;42.708;23.278;2023-02-12T12:03:44;27.20;;;13.47;;
21878;SDS011;27908;42.708;23.278;2023-02-12T12:06:34;20.70;;;9.73;;
21878;SDS011;27908;42.708;23.278;2023-02-12T12:11:58;33.92;;;14.63;;
21878;SDS011;27908;42.708;23.278;2023-02-12T12:14:45;25.40;;;11.43;;
21878;SDS011;27908;42.708;23.278;2023-02-12T12:20:34;30.05;;;13.60;;
21878;SDS011;27908;42.708;23.278;2023-02-12T12:23:08;31.58;;;15.20;;
21878;SDS011;27908;42.708;23.278;2023-02-12T12:41:46;33.40;;;15.00;;
21878;SDS011;27908;42.708;23.278;2023-02-12T12:57:55;26.55;;;13.00;;
21878;SDS011;27908;42.708;23.278;2023-02-12T13:11:22;28.98;;;14.48;;
21878;SDS011;27908;42.708;23.278;2023-02-12T13:13:56;27.95;;;12.23;;
21878;SDS011;27908;42.708;23.278;2023-02-12T13:16:45;24.95;;;12.25;;
21878;SDS011;27908;42.708;23.278;2023-02-12T13:19:23;27.53;;;12.70;;
21878;SDS011;27908;42.708;23.278;2023-02-12T13:25:01;26.58;;;14.35;;
21878;SDS011;27908;42.708;23.278;2023-02-12T13:27:42;28.30;;;14.00;;
21878;SDS011;27908;42.708;23.278;2023-02-12T13:32:47;29.90;;;14.67;;
21878;SDS011;27908;42.708;23.278;2023-02-12T13:35:21;26.25;;;12.43;;
21878;SDS011;27908;42.708;23.278;2023-02-12T13:37:51;27.48;;;12.95;;
21878;SDS011;27908;42.708;23.278;2023-02-12T13:40:28;28.20;;;13.77;;
21878;SDS011;27908;42.708;23.278;2023-02-12T13:45:46;28.05;;;13.95;;
21878;SDS011;27908;42.708;23.278;2023-02-12T13:51:33;33.03;;;15.07;;
21878;SDS011;27908;42.708;23.278;2023-02-12T13:54:11;27.30;;;13.53;;
21878;SDS011;27908;42.708;23.278;2023-02-12T14:01:57;28.75;;;13.85;;
21878;SDS011;27908;42.708;23.278;2023-02-12T14:06:55;39.93;;;15.30;;
21878;SDS011;27908;42.708;23.278;2023-02-12T14:09:29;30.70;;;12.85;;
21878;SDS011;27908;42.708;23.278;2023-02-12T14:11:59;37.88;;;15.48;;
21878;SDS011;27908;42.708;23.278;2023-02-12T14:14:36;32.00;;;14.38;;
21878;SDS011;27908;42.708;23.278;2023-02-12T14:19:57;31.00;;;15.23;;
21878;SDS011;27908;42.708;23.278;2023-02-12T14:27:48;33.07;;;16.23;;
21878;SDS011;27908;42.708;23.278;2023-02-12T14:35:35;36.83;;;16.90;;
21878;SDS011;27908;42.708;23.278;2023-02-12T14:43:17;36.08;;;16.33;;
21878;SDS011;27908;42.708;23.278;2023-02-12T14:45:55;20.75;;;10.98;;
21878;SDS011;27908;42.708;23.278;2023-02-12T14:54:39;34.67;;;15.63;;
21878;SDS011;27908;42.708;23.278;2023-02-12T15:00:19;38.22;;;17.45;;
21878;SDS011;27908;42.708;23.278;2023-02-12T15:02:51;33.65;;;15.88;;
21878;SDS011;27908;42.708;23.278;2023-02-12T15:05:21;38.30;;;16.65;;
21878;SDS011;27908;42.708;23.278;2023-02-12T15:07:51;34.23;;;16.53;;
21878;SDS011;27908;42.708;23.278;2023-02-12T15:10:26;41.20;;;18.02;;
21878;SDS011;27908;42.708;23.278;2023-02-12T15:13:01;37.70;;;17.65;;
21878;SDS011;27908;42.708;23.278;2023-02-12T15:15:38;36.17;;;18.05;;
21878;SDS011;27908;42.708;23.278;2023-02-12T15:18:25;31.58;;;15.75;;
21878;SDS011;27908;42.708;23.278;2023-02-12T15:20:59;35.33;;;16.70;;
21878;SDS011;27908;42.708;23.278;2023-02-12T15:26:08;35.95;;;16.25;;
21878;SDS011;27908;42.708;23.278;2023-02-12T15:28:37;32.65;;;16.50;;
21878;SDS011;27908;42.708;23.278;2023-02-12T15:31:04;40.15;;;18.33;;
21878;SDS011;27908;42.708;23.278;2023-02-12T15:33:34;33.37;;;15.40;;
21878;SDS011;27908;42.708;23.278;2023-02-12T15:36:23;38.20;;;18.75;;
21878;SDS011;27908;42.708;23.278;2023-02-12T15:38:51;37.10;;;17.27;;
21878;SDS011;27908;42.708;23.278;2023-02-12T15:41:29;39.58;;;17.45;;
21878;SDS011;27908;42.708;23.278;2023-02-12T15:44:16;40.35;;;18.05;;
21878;SDS011;27908;42.708;23.278;2023-02-12T15:49:27;35.30;;;16.40;;
21878;SDS011;27908;42.708;23.278;2023-02-12T15:51:55;39.83;;;18.60;;
21878;SDS011;27908;42.708;23.278;2023-02-12T15:54:21;39.20;;;18.05;;
21878;SDS011;27908;42.708;23.278;2023-02-12T15:56:47;41.47;;;17.77;;
21878;SDS011;27908;42.708;23.278;2023-02-12T15:59:24;46.70;;;19.60;;
21878;SDS011;27908;42.708;23.278;2023-02-12T16:01:54;38.20;;;16.40;;
21878;SDS011;27908;42.708;23.278;2023-02-12T16:04:27;36.60;;;17.05;;
21878;SDS011;27908;42.708;23.278;2023-02-12T16:06:55;41.00;;;18.17;;
21878;SDS011;27908;42.708;23.278;2023-02-12T16:09:31;37.38;;;18.05;;
21878;SDS011;27908;42.708;23.278;2023-02-12T16:12:00;40.42;;;19.58;;
21878;SDS011;27908;42.708;23.278;2023-02-12T16:14:28;45.83;;;20.55;;
21878;SDS011;27908;42.708;23.278;2023-02-12T16:17:15;41.28;;;19.90;;
21878;SDS011;27908;42.708;23.278;2023-02-12T16:20:02;35.20;;;17.10;;
21878;SDS011;27908;42.708;23.278;2023-02-12T16:22:44;40.70;;;19.35;;
21878;SDS011;27908;42.708;23.278;2023-02-12T16:25:22;39.72;;;18.55;;
21878;SDS011;27908;42.708;23.278;2023-02-12T16:30:38;38.65;;;17.13;;
21878;SDS011;27908;42.708;23.278;2023-02-12T16:38:47;41.85;;;19.27;;
21878;SDS011;27908;42.708;23.278;2023-02-12T16:43:43;42.30;;;19.25;;
21878;SDS011;27908;42.708;23.278;2023-02-12T16:46:13;46.67;;;21.00;;
21878;SDS011;27908;42.708;23.278;2023-02-12T16:48:44;48.80;;;21.58;;
21878;SDS011;27908;42.708;23.278;2023-02-12T16:51:29;43.47;;;20.05;;
21878;SDS011;27908;42.708;23.278;2023-02-12T16:53:57;43.53;;;21.13;;
21878;SDS011;27908;42.708;23.278;2023-02-12T16:56:26;51.55;;;23.00;;
21878;SDS011;27908;42.708;23.278;2023-02-12T16:58:55;46.57;;;20.80;;
21878;SDS011;27908;42.708;23.278;2023-02-12T17:01:26;48.13;;;22.35;;
21878;SDS011;27908;42.708;23.278;2023-02-12T17:03:55;45.92;;;21.50;;
21878;SDS011;27908;42.708;23.278;2023-02-12T17:06:23;49.22;;;22.23;;
21878;SDS011;27908;42.708;23.278;2023-02-12T17:08:51;47.65;;;21.40;;
21878;SDS011;27908;42.708;23.278;2023-02-12T17:11:17;47.40;;;21.10;;
21878;SDS011;27908;42.708;23.278;2023-02-12T17:13:46;49.60;;;21.10;;
21878;SDS011;27908;42.708;23.278;2023-02-12T17:16:13;50.70;;;21.10;;
21878;SDS011;27908;42.708;23.278;2023-02-12T17:18:39;52.85;;;22.08;;
21878;SDS011;27908;42.708;23.278;2023-02-12T17:21:24;45.90;;;20.95;;
21878;SDS011;27908;42.708;23.278;2023-02-12T17:23:52;50.87;;;22.90;;
21878;SDS011;27908;42.708;23.278;2023-02-12T17:26:18;84.57;;;30.13;;
21878;SDS011;27908;42.708;23.278;2023-02-12T17:28:45;121.72;;;36.75;;
21878;SDS011;27908;42.708;23.278;2023-02-12T17:31:10;85.17;;;30.60;;
21878;SDS011;27908;42.708;23.278;2023-02-12T17:33:36;77.35;;;30.60;;
21878;SDS011;27908;42.708;23.278;2023-02-12T17:36:02;46.47;;;20.10;;
21878;SDS011;27908;42.708;23.278;2023-02-12T17:38:28;52.63;;;22.38;;
21878;SDS011;27908;42.708;23.278;2023-02-12T17:40:53;58.17;;;25.20;;
21878;SDS011;27908;42.708;23.278;2023-02-12T17:43:19;67.77;;;28.60;;
21878;SDS011;27908;42.708;23.278;2023-02-12T17:45:44;60.47;;;27.13;;
21878;SDS011;27908;42.708;23.278;2023-02-12T17:48:10;57.70;;;26.30;;
21878;SDS011;27908;42.708;23.278;2023-02-12T17:50:36;57.60;;;26.25;;
21878;SDS011;27908;42.708;23.278;2023-02-12T17:53:03;61.13;;;25.40;;
21878;SDS011;27908;42.708;23.278;2023-02-12T17:55:28;64.50;;;26.40;;
21878;SDS011;27908;42.708;23.278;2023-02-12T17:57:54;58.70;;;25.47;;